createdAt,value
2022-10-06T00:01:04.219Z,1.07
2022-10-06T00:03:51.733Z,1.43
2022-10-06T00:06:40.485Z,1.60
2022-10-06T00:09:27.956Z,1.50
2022-10-06T00:12:15.324Z,1.40
2022-10-06T00:15:02.422Z,1.40
2022-10-06T00:17:50.472Z,1.50
2022-10-06T00:20:37.860Z,1.50
2022-10-06T00:23:26.903Z,1.63
2022-10-06T00:26:16.824Z,1.47
2022-10-06T00:29:04.933Z,4.10
2022-10-06T00:31:52.521Z,1.43
2022-10-06T00:34:39.800Z,1.80
2022-10-06T00:37:27.214Z,1.70
2022-10-06T00:40:15.977Z,1.67
2022-10-06T00:43:06.090Z,1.50
2022-10-06T00:45:54.186Z,1.57
2022-10-06T00:48:42.154Z,1.47
2022-10-06T00:51:31.475Z,1.37
2022-10-06T00:54:20.375Z,1.50
2022-10-06T00:57:09.483Z,1.20
2022-10-06T00:59:57.080Z,1.50
2022-10-06T01:02:50.269Z,1.30
2022-10-06T01:05:43.411Z,1.70
2022-10-06T01:08:32.555Z,1.90
2022-10-06T01:11:19.986Z,1.80
2022-10-06T01:14:09.024Z,1.90
2022-10-06T01:17:01.122Z,1.80
2022-10-06T01:19:53.546Z,1.87
2022-10-06T01:22:45.564Z,1.73
2022-10-06T01:25:34.646Z,1.70
2022-10-06T01:28:22.632Z,1.70
2022-10-06T01:31:11.292Z,1.50
2022-10-06T01:33:58.775Z,1.40
2022-10-06T01:36:46.804Z,1.50
2022-10-06T01:39:36.286Z,1.37
2022-10-06T01:42:24.409Z,2.00
2022-10-06T01:45:12.337Z,1.93
2022-10-06T01:47:59.689Z,1.73
2022-10-06T01:50:48.184Z,1.50
2022-10-06T01:53:35.986Z,1.30
2022-10-06T01:56:24.959Z,1.23
2022-10-06T01:59:12.422Z,1.57
2022-10-06T02:02:00.006Z,1.63
2022-10-06T02:04:47.718Z,1.73
2022-10-06T02:07:36.840Z,1.90
2022-10-06T02:10:24.310Z,1.57
2022-10-06T02:13:14.271Z,2.07
2022-10-06T02:16:01.961Z,2.00
2022-10-06T02:18:49.357Z,2.20
2022-10-06T02:21:36.596Z,1.87
2022-10-06T02:24:23.947Z,2.17
2022-10-06T02:27:11.424Z,2.23
2022-10-06T02:30:00.140Z,1.80
2022-10-06T02:32:48.294Z,2.50
2022-10-06T02:35:35.929Z,1.90
2022-10-06T02:38:23.912Z,1.73
2022-10-06T02:41:11.982Z,2.10
2022-10-06T02:44:00.085Z,2.00
2022-10-06T02:46:49.841Z,2.47
2022-10-06T02:49:38.303Z,2.10
2022-10-06T02:52:25.794Z,2.10
2022-10-06T02:55:13.781Z,1.70
2022-10-06T02:58:01.417Z,1.90
2022-10-06T03:00:48.948Z,2.13
2022-10-06T03:03:39.257Z,2.30
2022-10-06T03:06:28.644Z,2.20
2022-10-06T03:09:24.345Z,2.20
2022-10-06T03:12:13.495Z,2.43
2022-10-06T03:15:04.709Z,2.37
2022-10-06T03:17:52.683Z,2.17
2022-10-06T03:20:41.464Z,2.27
2022-10-06T03:23:29.279Z,2.53
2022-10-06T03:26:18.705Z,2.17
2022-10-06T03:29:11.137Z,2.57
2022-10-06T03:32:03.145Z,2.10
2022-10-06T03:34:50.852Z,1.60
2022-10-06T03:37:39.965Z,1.77
2022-10-06T03:40:27.867Z,1.70
2022-10-06T03:43:15.616Z,1.53
2022-10-06T03:46:04.369Z,1.43
2022-10-06T03:48:54.055Z,1.50
2022-10-06T03:51:43.048Z,1.30
2022-10-06T03:54:40.640Z,1.10
2022-10-06T03:57:27.875Z,3.83
2022-10-06T04:00:16.629Z,1.00
2022-10-06T04:03:05.677Z,1.30
2022-10-06T04:05:58.509Z,0.80
2022-10-06T04:08:49.388Z,0.80
2022-10-06T04:11:40.811Z,0.67
2022-10-06T04:14:28.934Z,1.00
2022-10-06T04:17:17.213Z,0.73
2022-10-06T04:20:04.901Z,1.30
2022-10-06T04:22:52.770Z,0.77
2022-10-06T04:25:40.091Z,0.90
2022-10-06T04:28:29.033Z,0.80
2022-10-06T04:31:20.184Z,1.20
2022-10-06T04:34:09.033Z,0.70
2022-10-06T04:36:56.712Z,0.77
2022-10-06T04:39:44.678Z,1.03
2022-10-06T04:42:35.069Z,0.90
2022-10-06T04:45:26.512Z,0.60
2022-10-06T04:48:14.989Z,0.70
2022-10-06T04:51:05.079Z,1.17
2022-10-06T04:53:53.308Z,0.80
2022-10-06T04:56:41.788Z,0.60
2022-10-06T04:59:43.764Z,0.70
2022-10-06T05:02:33.829Z,0.70
2022-10-06T05:05:21.267Z,0.67
2022-10-06T05:08:10.797Z,0.50
2022-10-06T05:11:01.697Z,0.60
2022-10-06T05:13:51.805Z,0.50
2022-10-06T05:16:39.281Z,0.50
2022-10-06T05:19:29.440Z,0.50
2022-10-06T05:22:17.327Z,0.90
2022-10-06T05:25:05.781Z,0.60
2022-10-06T05:27:53.384Z,0.40
2022-10-06T05:30:41.120Z,1.30
2022-10-06T05:33:31.169Z,1.03
2022-10-06T05:36:22.863Z,0.60
2022-10-06T05:39:12.151Z,5.20
2022-10-06T05:42:09.730Z,2.17
2022-10-06T05:44:58.290Z,1.30
2022-10-06T05:47:45.676Z,1.07
2022-10-06T05:50:33.108Z,0.50
2022-10-06T05:53:21.741Z,2.10
2022-10-06T05:56:11.813Z,2.10
2022-10-06T05:59:02.037Z,1.60
2022-10-06T06:01:50.413Z,1.57
2022-10-06T06:04:42.584Z,0.90
2022-10-06T06:07:12.376Z,0.90
2022-10-06T06:09:45.659Z,1.10
2022-10-06T06:12:16.583Z,1.10
2022-10-06T06:15:08.947Z,1.10
2022-10-06T06:17:42.905Z,0.93
2022-10-06T06:20:11.948Z,0.90
2022-10-06T06:22:41.235Z,2.20
2022-10-06T06:25:13.001Z,1.00
2022-10-06T06:27:43.820Z,0.73
2022-10-06T06:30:13.716Z,0.73
2022-10-06T06:32:43.286Z,2.20
2022-10-06T06:35:12.777Z,1.10
2022-10-06T06:37:41.884Z,0.70
2022-10-06T06:40:12.378Z,0.90
2022-10-06T06:42:44.386Z,0.80
2022-10-06T06:45:36.041Z,2.87
2022-10-06T06:48:23.675Z,0.50
2022-10-06T06:50:59.530Z,5.63
2022-10-06T06:53:32.324Z,0.80
2022-10-06T06:56:05.205Z,0.80
2022-10-06T06:58:36.205Z,1.00
2022-10-06T07:01:13.774Z,0.60
2022-10-06T07:03:57.181Z,0.60
2022-10-06T07:06:29.434Z,0.50
2022-10-06T07:09:01.279Z,0.60
2022-10-06T07:11:35.288Z,0.50
2022-10-06T07:14:09.392Z,0.73
2022-10-06T07:17:07.530Z,0.60
2022-10-06T07:19:55.538Z,0.43
2022-10-06T07:22:45.995Z,0.60
2022-10-06T07:25:26.042Z,0.60
2022-10-06T07:28:04.359Z,0.67
2022-10-06T07:30:40.972Z,1.10
2022-10-06T07:33:15.837Z,0.90
2022-10-06T07:35:47.118Z,0.83
2022-10-06T07:38:18.729Z,0.90
2022-10-06T07:41:14.936Z,0.70
2022-10-06T07:43:47.628Z,1.00
2022-10-06T07:46:19.393Z,0.90
2022-10-06T07:49:12.144Z,0.80
2022-10-06T07:51:42.997Z,0.80
2022-10-06T07:54:12.274Z,1.30
2022-10-06T07:56:48.820Z,0.90
2022-10-06T07:59:22.219Z,0.83
2022-10-06T08:01:52.619Z,0.90
2022-10-06T08:04:21.705Z,1.20
2022-10-06T08:06:50.688Z,0.87
2022-10-06T08:09:20.053Z,1.00
2022-10-06T08:11:49.003Z,1.10
2022-10-06T08:14:19.407Z,1.00
2022-10-06T08:16:48.393Z,1.17
2022-10-06T08:19:19.648Z,1.40
2022-10-06T08:21:48.669Z,0.70
2022-10-06T08:24:19.718Z,0.80
2022-10-06T08:26:48.674Z,0.80
2022-10-06T08:29:19.074Z,1.17
2022-10-06T08:31:48.127Z,0.90
2022-10-06T08:34:17.231Z,1.03
2022-10-06T08:37:02.141Z,0.70
2022-10-06T08:39:35.264Z,1.00
2022-10-06T08:42:04.570Z,1.00
2022-10-06T08:44:40.644Z,1.20
2022-10-06T08:47:18.874Z,1.00
2022-10-06T08:49:50.318Z,1.00
2022-10-06T08:52:37.431Z,1.20
2022-10-06T08:55:24.567Z,1.17
2022-10-06T08:58:11.918Z,0.93
2022-10-06T09:00:42.382Z,1.20
2022-10-06T09:03:23.109Z,1.10
2022-10-06T09:05:54.309Z,1.00
2022-10-06T09:08:42.277Z,1.00
2022-10-06T09:11:37.192Z,1.33
2022-10-06T09:14:14.145Z,1.10
2022-10-06T09:16:53.720Z,1.20
2022-10-06T09:19:32.865Z,1.10
2022-10-06T09:22:05.653Z,0.88
2022-10-06T09:24:41.449Z,1.20
2022-10-06T09:27:20.299Z,0.90
2022-10-06T09:29:50.041Z,0.70
2022-10-06T09:32:22.649Z,1.10
2022-10-06T09:34:56.275Z,0.98
2022-10-06T09:37:25.580Z,1.30
2022-10-06T09:39:55.881Z,0.80
2022-10-06T09:42:28.352Z,1.25
2022-10-06T09:45:03.968Z,1.10
2022-10-06T09:47:41.140Z,0.90
2022-10-06T09:50:23.617Z,1.05
2022-10-06T09:53:18.482Z,1.00
2022-10-06T09:55:54.865Z,1.10
2022-10-06T09:58:34.735Z,1.00
2022-10-06T10:01:07.177Z,1.05
2022-10-06T10:04:19.870Z,1.20
2022-10-06T10:06:42.414Z,1.30
2022-10-06T10:09:28.863Z,0.80
2022-10-06T10:12:27.634Z,0.95
2022-10-06T10:15:01.897Z,1.20
2022-10-06T10:17:40.245Z,1.10
2022-10-06T10:20:29.032Z,1.00
2022-10-06T10:23:01.328Z,1.20
2022-10-06T10:26:17.695Z,0.80
2022-10-06T10:29:08.033Z,1.60
2022-10-06T10:31:51.235Z,1.00
2022-10-06T10:34:42.076Z,0.85
2022-10-06T10:37:16.174Z,1.15
2022-10-06T10:39:52.281Z,1.40
2022-10-06T10:42:29.205Z,1.20
2022-10-06T10:45:02.823Z,0.95
2022-10-06T10:47:37.890Z,0.77
2022-10-06T10:50:12.611Z,0.73
2022-10-06T10:52:45.698Z,0.90
2022-10-06T10:55:29.025Z,1.17
2022-10-06T10:58:05.917Z,0.90
2022-10-06T11:00:40.320Z,0.93
2022-10-06T11:03:11.720Z,0.88
2022-10-06T11:06:08.841Z,1.00
2022-10-06T11:08:46.087Z,1.00
2022-10-06T11:11:23.543Z,0.90
2022-10-06T11:13:54.829Z,1.02
2022-10-06T11:16:37.302Z,0.90
2022-10-06T11:19:22.965Z,0.90
2022-10-06T11:22:00.133Z,1.05
2022-10-06T11:24:37.690Z,1.00
2022-10-06T11:27:23.399Z,1.02
2022-10-06T11:30:04.974Z,1.02
2022-10-06T11:32:48.649Z,0.90
2022-10-06T11:35:22.977Z,0.90
2022-10-06T11:38:00.309Z,0.65
2022-10-06T11:40:42.609Z,0.90
2022-10-06T11:43:21.850Z,1.02
2022-10-06T11:46:01.029Z,0.90
2022-10-06T11:48:32.131Z,0.80
2022-10-06T11:51:31.898Z,0.95
2022-10-06T11:54:01.099Z,1.10
2022-10-06T11:56:41.060Z,0.80
2022-10-06T11:59:26.726Z,1.00
2022-10-06T12:02:04.997Z,0.90
2022-10-06T12:04:34.144Z,0.95
2022-10-06T12:07:05.324Z,0.95
2022-10-06T12:09:53.184Z,0.98
2022-10-06T12:13:07.204Z,0.93
2022-10-06T12:19:19.358Z,0.70
2022-10-06T12:22:01.523Z,0.90
2022-10-06T12:24:42.875Z,0.55
2022-10-06T12:27:36.597Z,0.82
2022-10-06T12:30:22.549Z,0.70
2022-10-06T12:32:54.941Z,0.70
2022-10-06T12:35:32.034Z,0.52
2022-10-06T12:38:04.861Z,0.50
2022-10-06T12:40:49.280Z,0.55
2022-10-06T12:43:56.963Z,0.50
2022-10-06T12:46:38.203Z,0.68
2022-10-06T12:49:42.669Z,1.08
2022-10-06T12:52:32.522Z,0.60
2022-10-06T12:55:16.300Z,0.40
2022-10-06T12:57:50.811Z,0.90
2022-10-06T13:00:34.983Z,0.88
2022-10-06T13:03:08.879Z,0.70
2022-10-06T13:05:38.591Z,0.82
2022-10-06T13:08:22.619Z,0.70
2022-10-06T13:10:51.668Z,0.83
2022-10-06T13:13:24.741Z,0.80
2022-10-06T13:15:55.964Z,0.80
2022-10-06T13:18:26.434Z,0.90
2022-10-06T13:20:57.022Z,0.80
2022-10-06T13:23:29.238Z,0.80
2022-10-06T13:26:00.194Z,0.70
2022-10-06T13:28:48.551Z,1.02
2022-10-06T13:31:22.521Z,0.90
2022-10-06T13:33:57.569Z,0.90
2022-10-06T13:36:27.207Z,0.90
2022-10-06T13:38:56.431Z,0.73
2022-10-06T13:41:31.714Z,0.70
2022-10-06T13:44:04.095Z,0.85
2022-10-06T13:46:41.012Z,0.90
2022-10-06T13:49:21.238Z,0.60
2022-10-06T13:51:53.770Z,0.53
2022-10-06T13:54:29.470Z,0.97
2022-10-06T13:56:59.280Z,0.50
2022-10-06T13:59:36.678Z,0.73
2022-10-06T14:02:26.705Z,0.67
2022-10-06T14:05:29.328Z,0.97
2022-10-06T14:08:02.015Z,1.07
2022-10-06T14:10:45.998Z,1.10
2022-10-06T14:13:19.765Z,0.70
2022-10-06T14:15:51.812Z,0.67
2022-10-06T14:18:24.404Z,0.90
2022-10-06T14:20:56.504Z,1.00
2022-10-06T14:23:49.891Z,0.80
2022-10-06T14:26:21.379Z,0.90
2022-10-06T14:28:52.977Z,0.80
2022-10-06T14:31:23.642Z,0.77
2022-10-06T14:33:54.703Z,1.17
2022-10-06T14:36:28.210Z,1.07
2022-10-06T14:38:59.460Z,1.17
2022-10-06T14:41:31.017Z,1.00
2022-10-06T14:44:02.956Z,1.03
2022-10-06T14:46:32.036Z,1.30
2022-10-06T14:49:03.241Z,0.87
2022-10-06T14:51:36.576Z,0.60
2022-10-06T14:54:07.514Z,0.90
2022-10-06T14:56:39.323Z,1.03
2022-10-06T14:59:11.986Z,0.90
2022-10-06T15:01:41.588Z,0.80
2022-10-06T15:04:14.233Z,1.03
2022-10-06T15:07:02.379Z,0.73
2022-10-06T15:09:32.072Z,0.80
2022-10-06T15:12:01.649Z,1.03
2022-10-06T15:14:30.866Z,0.80
2022-10-06T15:17:00.396Z,0.80
2022-10-06T15:19:29.629Z,1.20
2022-10-06T15:22:00.567Z,1.30
2022-10-06T15:24:29.819Z,0.80
2022-10-06T15:27:17.657Z,1.00
2022-10-06T15:29:48.292Z,0.93
2022-10-06T15:32:17.276Z,0.70
2022-10-06T15:34:46.345Z,0.90
2022-10-06T15:37:19.938Z,0.80
2022-10-06T15:39:48.958Z,0.80
2022-10-06T15:42:21.629Z,0.80
2022-10-06T15:44:50.897Z,0.80
2022-10-06T15:47:19.880Z,1.10
2022-10-06T15:49:49.367Z,0.90
2022-10-06T15:52:19.721Z,0.97
2022-10-06T15:54:49.905Z,0.70
2022-10-06T15:57:21.228Z,1.03
2022-10-06T15:59:51.299Z,0.73
2022-10-06T16:02:22.363Z,1.10
2022-10-06T16:05:17.715Z,1.10
2022-10-06T16:07:48.087Z,0.80
2022-10-06T16:10:17.453Z,0.90
2022-10-06T16:12:46.484Z,0.80
2022-10-06T16:15:15.661Z,0.80
2022-10-06T16:17:44.645Z,0.80
2022-10-06T16:20:15.272Z,0.90
2022-10-06T16:22:44.255Z,0.90
2022-10-06T16:25:15.142Z,0.90
2022-10-06T16:27:44.145Z,0.80
2022-10-06T16:30:13.589Z,1.13
2022-10-06T16:32:42.583Z,0.80
2022-10-06T16:35:16.049Z,0.60
2022-10-06T16:37:49.887Z,0.90
2022-10-06T16:40:22.572Z,0.80
2022-10-06T16:42:53.086Z,1.57
2022-10-06T16:45:22.105Z,1.10
2022-10-06T16:47:51.125Z,0.80
2022-10-06T16:50:20.132Z,1.50
2022-10-06T16:52:49.117Z,1.67
2022-10-06T16:55:19.539Z,2.00
2022-10-06T16:57:48.587Z,1.80
2022-10-06T17:00:17.961Z,1.80
2022-10-06T17:02:46.996Z,1.77
2022-10-06T17:05:16.243Z,1.50
2022-10-06T17:07:45.240Z,1.40
2022-10-06T17:10:20.501Z,1.80
2022-10-06T17:12:51.440Z,1.20
2022-10-06T17:15:20.472Z,1.23
2022-10-06T17:17:49.502Z,1.27
2022-10-06T17:20:18.594Z,1.47
2022-10-06T17:22:48.597Z,1.50
2022-10-06T17:25:17.638Z,1.40
2022-10-06T17:27:46.667Z,1.30
2022-10-06T17:30:17.266Z,1.57
2022-10-06T17:32:47.351Z,1.57
2022-10-06T17:35:19.105Z,1.30
2022-10-06T17:37:50.232Z,1.50
2022-10-06T17:40:19.525Z,1.90
2022-10-06T17:42:48.519Z,3.90
2022-10-06T17:45:21.303Z,3.77
2022-10-06T17:47:51.739Z,4.10
2022-10-06T17:50:20.774Z,3.50
2022-10-06T17:52:49.757Z,2.97
2022-10-06T17:55:18.904Z,3.40
2022-10-06T17:57:47.900Z,4.10
2022-10-06T18:00:18.777Z,3.50
2022-10-06T18:02:48.006Z,3.40
2022-10-06T18:05:18.055Z,4.17
2022-10-06T18:07:47.350Z,3.90
2022-10-06T18:10:33.980Z,3.57
2022-10-06T18:13:02.982Z,3.47
2022-10-06T18:15:37.134Z,3.07
2022-10-06T18:18:06.372Z,3.30
2022-10-06T18:20:40.317Z,3.03
2022-10-06T18:23:09.985Z,2.57
2022-10-06T18:25:40.203Z,2.37
2022-10-06T18:28:10.407Z,2.13
2022-10-06T18:30:40.872Z,3.13
2022-10-06T18:36:12.935Z,3.37
2022-10-06T18:38:46.947Z,3.10
2022-10-06T18:41:18.932Z,3.17
2022-10-06T18:43:47.924Z,3.73
2022-10-06T18:46:36.622Z,4.13
2022-10-06T18:49:10.533Z,3.90
2022-10-06T18:51:41.611Z,3.30
2022-10-06T18:54:13.422Z,2.90
2022-10-06T18:56:46.254Z,2.37
2022-10-06T18:59:16.386Z,2.23
2022-10-06T19:01:48.804Z,2.60
2022-10-06T19:04:19.911Z,2.13
2022-10-06T19:06:53.071Z,2.63
2022-10-06T19:09:24.382Z,2.37
2022-10-06T19:11:57.768Z,3.30
2022-10-06T19:14:29.849Z,5.07
2022-10-06T19:17:04.795Z,6.13
2022-10-06T19:19:35.019Z,4.57
2022-10-06T19:22:05.543Z,3.50
2022-10-06T19:24:38.138Z,2.93
2022-10-06T19:27:12.196Z,3.50
2022-10-06T19:29:45.739Z,4.10
2022-10-06T19:32:19.797Z,3.83
2022-10-06T19:34:49.048Z,3.77
2022-10-06T19:37:18.139Z,3.20
2022-10-06T19:39:50.228Z,2.87
2022-10-06T19:42:38.672Z,2.70
2022-10-06T19:45:11.849Z,2.60
2022-10-06T19:47:42.984Z,2.40
2022-10-06T19:50:12.981Z,2.50
2022-10-06T19:52:42.540Z,2.47
2022-10-06T19:55:11.588Z,1.80
2022-10-06T19:57:40.632Z,2.20
2022-10-06T20:00:11.556Z,2.20
2022-10-06T20:02:45.329Z,2.47
2022-10-06T20:05:36.593Z,4.40
2022-10-06T20:08:23.956Z,3.67
2022-10-06T20:11:14.098Z,3.47
2022-10-06T20:14:01.388Z,2.83
2022-10-06T20:16:50.696Z,2.60
2022-10-06T20:19:40.060Z,1.87
2022-10-06T20:22:27.943Z,2.57
2022-10-06T20:25:15.802Z,2.63
2022-10-06T20:28:08.192Z,2.40
2022-10-06T20:30:58.780Z,2.40
2022-10-06T20:33:49.582Z,2.20
2022-10-06T20:36:39.983Z,2.30
2022-10-06T20:39:45.075Z,1.97
2022-10-06T20:42:32.766Z,2.80
2022-10-06T20:45:21.025Z,2.57
2022-10-06T20:48:09.109Z,2.00
2022-10-06T20:50:58.028Z,2.00
2022-10-06T20:53:47.622Z,2.20
2022-10-06T20:56:37.319Z,2.17
2022-10-06T20:59:25.821Z,2.43
2022-10-06T21:02:13.604Z,2.40
2022-10-06T21:05:02.329Z,2.80
2022-10-06T21:07:50.855Z,2.90
2022-10-06T21:10:40.040Z,2.93
2022-10-06T21:13:29.200Z,3.10
2022-10-06T21:16:17.036Z,3.03
2022-10-06T21:19:08.098Z,2.10
2022-10-06T21:21:56.040Z,1.97
2022-10-06T21:24:43.687Z,2.20
2022-10-06T21:27:32.515Z,2.33
2022-10-06T21:30:20.195Z,2.23
2022-10-06T21:33:07.544Z,2.53
2022-10-06T21:36:02.267Z,2.60
2022-10-06T21:38:53.350Z,2.33
2022-10-06T21:41:41.817Z,2.10
2022-10-06T21:44:30.692Z,2.23
2022-10-06T21:47:18.738Z,2.03
2022-10-06T21:50:07.116Z,1.83
2022-10-06T21:52:57.617Z,2.43
2022-10-06T21:55:47.055Z,2.20
2022-10-06T21:58:47.480Z,2.13
2022-10-06T22:01:43.241Z,2.00
2022-10-06T22:04:34.887Z,1.40
2022-10-06T22:07:30.603Z,1.67
2022-10-06T22:11:16.366Z,1.70
2022-10-06T22:14:24.297Z,1.50
2022-10-06T22:17:51.983Z,1.20
2022-10-06T22:20:46.853Z,1.30
2022-10-06T22:23:35.022Z,1.87
2022-10-06T22:26:26.315Z,1.80
2022-10-06T22:29:17.886Z,1.80
2022-10-06T22:32:38.299Z,1.80
2022-10-06T22:35:27.105Z,1.67
2022-10-06T22:38:18.212Z,2.10
2022-10-06T22:41:08.936Z,2.07
2022-10-06T22:43:59.200Z,1.73
2022-10-06T22:46:52.023Z,1.60
2022-10-06T22:49:41.877Z,1.50
2022-10-06T22:52:44.093Z,1.47
2022-10-06T22:55:35.879Z,1.90
2022-10-06T22:58:24.265Z,2.00
2022-10-06T23:01:17.558Z,2.10
2022-10-06T23:04:09.841Z,2.27
2022-10-06T23:07:00.386Z,1.90
2022-10-06T23:09:54.310Z,2.37
2022-10-06T23:12:42.902Z,1.83
2022-10-06T23:15:31.470Z,2.10
2022-10-06T23:23:03.068Z,1.97
2022-10-06T23:25:51.894Z,1.47
2022-10-06T23:28:41.891Z,2.00
2022-10-06T23:31:31.979Z,2.07
2022-10-06T23:34:20.701Z,2.00
2022-10-06T23:37:14.422Z,1.60
2022-10-06T23:40:04.813Z,1.53
2022-10-06T23:42:53.427Z,1.53
2022-10-06T23:45:42.247Z,1.90
2022-10-06T23:48:30.764Z,2.07
2022-10-06T23:51:19.669Z,2.00
2022-10-06T23:54:08.695Z,1.73
2022-10-06T23:56:58.887Z,1.60
2022-10-06T23:59:49.771Z,1.67
